sensor_id;sensor_type;location;lat;lon;timestamp;P1;durP1;ratioP1;P2;durP2;ratioP2
21107;SDS011;10712;52.944;9.098;2022-10-31T00:00:28;19.38;;;13.93;;
21107;SDS011;10712;52.944;9.098;2022-10-31T00:02:54;16.80;;;12.48;;
21107;SDS011;10712;52.944;9.098;2022-10-31T00:05:20;15.43;;;12.93;;
21107;SDS011;10712;52.944;9.098;2022-10-31T00:07:46;17.15;;;11.57;;
21107;SDS011;10712;52.944;9.098;2022-10-31T00:10:12;17.08;;;14.25;;
21107;SDS011;10712;52.944;9.098;2022-10-31T00:12:37;13.30;;;11.20;;
21107;SDS011;10712;52.944;9.098;2022-10-31T00:15:03;17.00;;;13.15;;
21107;SDS011;10712;52.944;9.098;2022-10-31T00:17:29;17.33;;;14.20;;
21107;SDS011;10712;52.944;9.098;2022-10-31T00:19:55;21.67;;;14.07;;
21107;SDS011;10712;52.944;9.098;2022-10-31T00:22:21;20.83;;;15.75;;
21107;SDS011;10712;52.944;9.098;2022-10-31T00:24:47;24.38;;;16.67;;
21107;SDS011;10712;52.944;9.098;2022-10-31T00:27:13;34.67;;;21.15;;
21107;SDS011;10712;52.944;9.098;2022-10-31T00:29:39;28.33;;;20.52;;
21107;SDS011;10712;52.944;9.098;2022-10-31T00:32:04;41.08;;;25.45;;
21107;SDS011;10712;52.944;9.098;2022-10-31T00:34:30;33.83;;;23.42;;
21107;SDS011;10712;52.944;9.098;2022-10-31T00:36:58;25.48;;;19.25;;
21107;SDS011;10712;52.944;9.098;2022-10-31T00:39:24;26.55;;;19.38;;
21107;SDS011;10712;52.944;9.098;2022-10-31T00:41:50;27.35;;;19.15;;
21107;SDS011;10712;52.944;9.098;2022-10-31T00:44:15;24.30;;;17.38;;
21107;SDS011;10712;52.944;9.098;2022-10-31T00:46:41;29.38;;;20.10;;
21107;SDS011;10712;52.944;9.098;2022-10-31T00:49:07;19.00;;;16.77;;
21107;SDS011;10712;52.944;9.098;2022-10-31T00:51:33;22.73;;;15.63;;
21107;SDS011;10712;52.944;9.098;2022-10-31T00:53:59;18.48;;;14.88;;
21107;SDS011;10712;52.944;9.098;2022-10-31T00:56:24;21.02;;;16.10;;
21107;SDS011;10712;52.944;9.098;2022-10-31T00:58:51;23.77;;;18.67;;
21107;SDS011;10712;52.944;9.098;2022-10-31T01:01:16;24.55;;;18.27;;
21107;SDS011;10712;52.944;9.098;2022-10-31T01:03:42;19.73;;;15.02;;
21107;SDS011;10712;52.944;9.098;2022-10-31T01:06:12;23.02;;;17.10;;
21107;SDS011;10712;52.944;9.098;2022-10-31T01:08:39;17.83;;;15.27;;
21107;SDS011;10712;52.944;9.098;2022-10-31T01:11:07;21.23;;;15.88;;
21107;SDS011;10712;52.944;9.098;2022-10-31T01:13:40;22.30;;;16.65;;
21107;SDS011;10712;52.944;9.098;2022-10-31T01:16:07;18.65;;;15.18;;
21107;SDS011;10712;52.944;9.098;2022-10-31T01:18:36;20.00;;;15.23;;
21107;SDS011;10712;52.944;9.098;2022-10-31T01:21:12;19.40;;;15.10;;
21107;SDS011;10712;52.944;9.098;2022-10-31T01:23:42;31.67;;;22.70;;
21107;SDS011;10712;52.944;9.098;2022-10-31T01:26:15;28.38;;;17.23;;
21107;SDS011;10712;52.944;9.098;2022-10-31T01:31:27;25.50;;;19.40;;
21107;SDS011;10712;52.944;9.098;2022-10-31T01:33:57;19.67;;;16.48;;
21107;SDS011;10712;52.944;9.098;2022-10-31T01:36:25;24.92;;;17.67;;
21107;SDS011;10712;52.944;9.098;2022-10-31T01:38:56;20.05;;;16.83;;
21107;SDS011;10712;52.944;9.098;2022-10-31T01:41:27;22.50;;;15.00;;
21107;SDS011;10712;52.944;9.098;2022-10-31T01:43:57;19.13;;;14.85;;
21107;SDS011;10712;52.944;9.098;2022-10-31T01:46:31;17.00;;;13.90;;
21107;SDS011;10712;52.944;9.098;2022-10-31T01:49:04;21.98;;;16.02;;
21107;SDS011;10712;52.944;9.098;2022-10-31T01:51:38;21.38;;;16.08;;
21107;SDS011;10712;52.944;9.098;2022-10-31T01:54:13;20.83;;;16.83;;
21107;SDS011;10712;52.944;9.098;2022-10-31T01:56:47;17.17;;;14.38;;
21107;SDS011;10712;52.944;9.098;2022-10-31T01:59:19;18.33;;;14.00;;
21107;SDS011;10712;52.944;9.098;2022-10-31T02:01:49;20.45;;;15.02;;
21107;SDS011;10712;52.944;9.098;2022-10-31T02:04:16;19.55;;;14.23;;
21107;SDS011;10712;52.944;9.098;2022-10-31T02:06:47;19.55;;;14.20;;
21107;SDS011;10712;52.944;9.098;2022-10-31T02:09:21;22.77;;;15.02;;
21107;SDS011;10712;52.944;9.098;2022-10-31T02:11:51;20.52;;;15.57;;
21107;SDS011;10712;52.944;9.098;2022-10-31T02:14:22;15.70;;;12.98;;
21107;SDS011;10712;52.944;9.098;2022-10-31T02:16:51;18.60;;;14.30;;
21107;SDS011;10712;52.944;9.098;2022-10-31T02:19:26;15.82;;;13.05;;
21107;SDS011;10712;52.944;9.098;2022-10-31T02:31:35;22.20;;;17.30;;
21107;SDS011;10712;52.944;9.098;2022-10-31T02:35:42;18.85;;;14.18;;
21107;SDS011;10712;52.944;9.098;2022-10-31T02:43:45;19.42;;;15.23;;
21107;SDS011;10712;52.944;9.098;2022-10-31T02:46:28;17.83;;;14.95;;
21107;SDS011;10712;52.944;9.098;2022-10-31T02:49:15;20.15;;;13.68;;
21107;SDS011;10712;52.944;9.098;2022-10-31T02:51:51;19.55;;;14.55;;
21107;SDS011;10712;52.944;9.098;2022-10-31T02:54:22;17.13;;;13.88;;
21107;SDS011;10712;52.944;9.098;2022-10-31T02:56:57;18.27;;;13.65;;
21107;SDS011;10712;52.944;9.098;2022-10-31T02:59:30;21.15;;;14.25;;
21107;SDS011;10712;52.944;9.098;2022-10-31T03:05:23;22.08;;;17.48;;
21107;SDS011;10712;52.944;9.098;2022-10-31T03:08:43;21.85;;;16.27;;
21107;SDS011;10712;52.944;9.098;2022-10-31T03:10:58;18.05;;;13.70;;
21107;SDS011;10712;52.944;9.098;2022-10-31T03:13:47;16.83;;;12.82;;
21107;SDS011;10712;52.944;9.098;2022-10-31T03:16:48;21.27;;;16.20;;
21107;SDS011;10712;52.944;9.098;2022-10-31T03:19:19;22.30;;;16.80;;
21107;SDS011;10712;52.944;9.098;2022-10-31T03:24:21;22.20;;;15.98;;
21107;SDS011;10712;52.944;9.098;2022-10-31T03:26:57;17.05;;;14.30;;
21107;SDS011;10712;52.944;9.098;2022-10-31T03:29:30;19.42;;;15.65;;
21107;SDS011;10712;52.944;9.098;2022-10-31T03:32:07;23.73;;;18.63;;
21107;SDS011;10712;52.944;9.098;2022-10-31T03:34:47;27.25;;;19.05;;
21107;SDS011;10712;52.944;9.098;2022-10-31T03:37:18;21.33;;;17.45;;
21107;SDS011;10712;52.944;9.098;2022-10-31T03:39:49;26.73;;;17.83;;
21107;SDS011;10712;52.944;9.098;2022-10-31T03:42:23;21.70;;;16.70;;
21107;SDS011;10712;52.944;9.098;2022-10-31T03:44:59;21.40;;;16.25;;
21107;SDS011;10712;52.944;9.098;2022-10-31T03:47:34;23.52;;;17.48;;
21107;SDS011;10712;52.944;9.098;2022-10-31T03:50:03;25.48;;;19.63;;
21107;SDS011;10712;52.944;9.098;2022-10-31T03:55:16;27.60;;;20.88;;
21107;SDS011;10712;52.944;9.098;2022-10-31T03:58:05;25.55;;;19.85;;
21107;SDS011;10712;52.944;9.098;2022-10-31T04:03:14;26.85;;;17.27;;
21107;SDS011;10712;52.944;9.098;2022-10-31T04:05:49;21.30;;;15.98;;
21107;SDS011;10712;52.944;9.098;2022-10-31T04:08:20;24.00;;;15.05;;
21107;SDS011;10712;52.944;9.098;2022-10-31T04:10:54;21.10;;;16.77;;
21107;SDS011;10712;52.944;9.098;2022-10-31T04:13:28;17.27;;;13.77;;
21107;SDS011;10712;52.944;9.098;2022-10-31T04:18:33;19.17;;;15.70;;
21107;SDS011;10712;52.944;9.098;2022-10-31T04:21:02;22.60;;;16.42;;
21107;SDS011;10712;52.944;9.098;2022-10-31T04:23:32;23.95;;;18.30;;
21107;SDS011;10712;52.944;9.098;2022-10-31T04:26:07;22.83;;;16.08;;
21107;SDS011;10712;52.944;9.098;2022-10-31T04:28:36;21.55;;;16.33;;
21107;SDS011;10712;52.944;9.098;2022-10-31T04:31:03;29.42;;;19.40;;
21107;SDS011;10712;52.944;9.098;2022-10-31T04:33:34;27.20;;;18.63;;
21107;SDS011;10712;52.944;9.098;2022-10-31T04:36:01;27.20;;;18.58;;
21107;SDS011;10712;52.944;9.098;2022-10-31T04:38:27;24.40;;;18.80;;
21107;SDS011;10712;52.944;9.098;2022-10-31T04:40:53;34.05;;;22.85;;
21107;SDS011;10712;52.944;9.098;2022-10-31T04:43:42;31.60;;;22.05;;
21107;SDS011;10712;52.944;9.098;2022-10-31T04:46:08;23.63;;;17.70;;
21107;SDS011;10712;52.944;9.098;2022-10-31T04:48:34;22.20;;;17.15;;
21107;SDS011;10712;52.944;9.098;2022-10-31T04:51:01;20.33;;;15.77;;
21107;SDS011;10712;52.944;9.098;2022-10-31T04:53:28;22.67;;;16.25;;
21107;SDS011;10712;52.944;9.098;2022-10-31T04:56:17;25.77;;;17.38;;
21107;SDS011;10712;52.944;9.098;2022-10-31T04:58:46;21.98;;;15.15;;
21107;SDS011;10712;52.944;9.098;2022-10-31T05:01:12;19.65;;;16.02;;
21107;SDS011;10712;52.944;9.098;2022-10-31T05:03:38;22.23;;;15.90;;
21107;SDS011;10712;52.944;9.098;2022-10-31T05:06:05;24.02;;;19.85;;
21107;SDS011;10712;52.944;9.098;2022-10-31T05:08:32;20.27;;;16.83;;
21107;SDS011;10712;52.944;9.098;2022-10-31T05:11:01;19.08;;;15.55;;
21107;SDS011;10712;52.944;9.098;2022-10-31T05:13:28;22.08;;;18.58;;
21107;SDS011;10712;52.944;9.098;2022-10-31T05:16:28;27.05;;;21.50;;
21107;SDS011;10712;52.944;9.098;2022-10-31T05:19:12;37.90;;;27.65;;
21107;SDS011;10712;52.944;9.098;2022-10-31T05:22:07;29.52;;;21.80;;
21107;SDS011;10712;52.944;9.098;2022-10-31T05:24:34;32.00;;;22.60;;
21107;SDS011;10712;52.944;9.098;2022-10-31T05:27:01;41.08;;;18.98;;
21107;SDS011;10712;52.944;9.098;2022-10-31T05:29:26;17.95;;;16.00;;
21107;SDS011;10712;52.944;9.098;2022-10-31T05:31:52;18.13;;;15.88;;
21107;SDS011;10712;52.944;9.098;2022-10-31T05:34:38;16.45;;;13.82;;
21107;SDS011;10712;52.944;9.098;2022-10-31T05:37:18;14.15;;;12.70;;
21107;SDS011;10712;52.944;9.098;2022-10-31T05:39:44;14.23;;;12.77;;
21107;SDS011;10712;52.944;9.098;2022-10-31T05:42:13;13.00;;;11.70;;
21107;SDS011;10712;52.944;9.098;2022-10-31T05:44:40;13.55;;;12.15;;
21107;SDS011;10712;52.944;9.098;2022-10-31T05:47:22;11.40;;;10.20;;
21107;SDS011;10712;52.944;9.098;2022-10-31T05:50:14;11.95;;;10.52;;
21107;SDS011;10712;52.944;9.098;2022-10-31T05:52:47;10.80;;;9.80;;
21107;SDS011;10712;52.944;9.098;2022-10-31T05:55:28;13.88;;;12.48;;
21107;SDS011;10712;52.944;9.098;2022-10-31T05:58:02;14.27;;;12.70;;
21107;SDS011;10712;52.944;9.098;2022-10-31T06:00:28;13.10;;;11.68;;
21107;SDS011;10712;52.944;9.098;2022-10-31T06:03:03;11.68;;;10.57;;
21107;SDS011;10712;52.944;9.098;2022-10-31T06:05:40;9.75;;;8.75;;
21107;SDS011;10712;52.944;9.098;2022-10-31T06:08:06;9.23;;;8.32;;
21107;SDS011;10712;52.944;9.098;2022-10-31T06:10:33;10.25;;;9.13;;
21107;SDS011;10712;52.944;9.098;2022-10-31T06:12:58;8.70;;;7.90;;
21107;SDS011;10712;52.944;9.098;2022-10-31T06:15:40;10.73;;;9.65;;
21107;SDS011;10712;52.944;9.098;2022-10-31T06:18:07;10.73;;;9.63;;
21107;SDS011;10712;52.944;9.098;2022-10-31T06:20:42;11.00;;;10.00;;
21107;SDS011;10712;52.944;9.098;2022-10-31T06:23:09;9.73;;;8.93;;
21107;SDS011;10712;52.944;9.098;2022-10-31T06:25:36;16.48;;;14.73;;
21107;SDS011;10712;52.944;9.098;2022-10-31T06:28:03;11.57;;;10.38;;
21107;SDS011;10712;52.944;9.098;2022-10-31T06:30:51;10.38;;;9.48;;
21107;SDS011;10712;52.944;9.098;2022-10-31T06:33:17;9.93;;;8.93;;
21107;SDS011;10712;52.944;9.098;2022-10-31T06:35:53;11.23;;;10.13;;
21107;SDS011;10712;52.944;9.098;2022-10-31T06:38:20;12.93;;;11.73;;
21107;SDS011;10712;52.944;9.098;2022-10-31T06:40:46;13.38;;;12.18;;
21107;SDS011;10712;52.944;9.098;2022-10-31T06:43:18;12.68;;;11.57;;
21107;SDS011;10712;52.944;9.098;2022-10-31T06:45:46;11.15;;;10.10;;
21107;SDS011;10712;52.944;9.098;2022-10-31T06:48:20;12.70;;;11.60;;
21107;SDS011;10712;52.944;9.098;2022-10-31T06:51:05;11.25;;;10.25;;
21107;SDS011;10712;52.944;9.098;2022-10-31T06:53:31;13.02;;;11.77;;
21107;SDS011;10712;52.944;9.098;2022-10-31T06:55:57;10.77;;;9.82;;
21107;SDS011;10712;52.944;9.098;2022-10-31T06:58:24;9.40;;;8.60;;
21107;SDS011;10712;52.944;9.098;2022-10-31T07:00:53;13.43;;;12.18;;
21107;SDS011;10712;52.944;9.098;2022-10-31T07:03:18;12.50;;;11.40;;
21107;SDS011;10712;52.944;9.098;2022-10-31T07:05:46;12.15;;;11.10;;
21107;SDS011;10712;52.944;9.098;2022-10-31T07:08:13;12.00;;;11.00;;
21107;SDS011;10712;52.944;9.098;2022-10-31T07:10:40;8.35;;;7.65;;
21107;SDS011;10712;52.944;9.098;2022-10-31T07:13:10;8.90;;;8.20;;
21107;SDS011;10712;52.944;9.098;2022-10-31T07:18:08;10.88;;;9.88;;
21107;SDS011;10712;52.944;9.098;2022-10-31T07:20:35;11.15;;;10.15;;
21107;SDS011;10712;52.944;9.098;2022-10-31T07:23:01;13.65;;;12.45;;
21107;SDS011;10712;52.944;9.098;2022-10-31T07:25:29;12.77;;;11.68;;
21107;SDS011;10712;52.944;9.098;2022-10-31T07:28:05;11.35;;;10.35;;
21107;SDS011;10712;52.944;9.098;2022-10-31T07:30:32;14.43;;;13.07;;
21107;SDS011;10712;52.944;9.098;2022-10-31T07:32:58;13.05;;;11.95;;
21107;SDS011;10712;52.944;9.098;2022-10-31T07:35:42;11.02;;;10.07;;
21107;SDS011;10712;52.944;9.098;2022-10-31T07:38:12;9.43;;;8.63;;
21107;SDS011;10712;52.944;9.098;2022-10-31T07:40:40;9.55;;;8.70;;
21107;SDS011;10712;52.944;9.098;2022-10-31T07:43:07;28.75;;;23.65;;
21107;SDS011;10712;52.944;9.098;2022-10-31T07:45:55;19.15;;;17.25;;
21107;SDS011;10712;52.944;9.098;2022-10-31T07:48:40;15.73;;;14.15;;
21107;SDS011;10712;52.944;9.098;2022-10-31T07:51:24;37.05;;;32.85;;
21107;SDS011;10712;52.944;9.098;2022-10-31T07:54:17;26.67;;;23.17;;
21107;SDS011;10712;52.944;9.098;2022-10-31T07:56:43;19.10;;;17.10;;
21107;SDS011;10712;52.944;9.098;2022-10-31T07:59:08;18.73;;;16.75;;
21107;SDS011;10712;52.944;9.098;2022-10-31T08:01:34;19.25;;;17.23;;
21107;SDS011;10712;52.944;9.098;2022-10-31T08:04:19;15.63;;;14.02;;
21107;SDS011;10712;52.944;9.098;2022-10-31T08:07:03;12.82;;;11.50;;
21107;SDS011;10712;52.944;9.098;2022-10-31T08:09:33;13.32;;;11.98;;
21107;SDS011;10712;52.944;9.098;2022-10-31T08:12:03;13.13;;;11.82;;
21107;SDS011;10712;52.944;9.098;2022-10-31T08:14:31;17.30;;;15.00;;
21107;SDS011;10712;52.944;9.098;2022-10-31T08:16:57;31.70;;;26.30;;
21107;SDS011;10712;52.944;9.098;2022-10-31T08:19:29;22.20;;;19.67;;
21107;SDS011;10712;52.944;9.098;2022-10-31T08:21:55;19.27;;;17.23;;
21107;SDS011;10712;52.944;9.098;2022-10-31T08:24:21;14.90;;;13.35;;
21107;SDS011;10712;52.944;9.098;2022-10-31T08:26:47;16.13;;;13.45;;
21107;SDS011;10712;52.944;9.098;2022-10-31T08:29:13;14.27;;;12.80;;
21107;SDS011;10712;52.944;9.098;2022-10-31T08:31:41;20.00;;;17.95;;
21107;SDS011;10712;52.944;9.098;2022-10-31T08:34:26;16.38;;;14.68;;
21107;SDS011;10712;52.944;9.098;2022-10-31T08:37:11;15.27;;;13.68;;
21107;SDS011;10712;52.944;9.098;2022-10-31T08:39:44;20.50;;;17.05;;
21107;SDS011;10712;52.944;9.098;2022-10-31T08:42:10;16.30;;;14.70;;
21107;SDS011;10712;52.944;9.098;2022-10-31T08:44:37;18.55;;;16.20;;
21107;SDS011;10712;52.944;9.098;2022-10-31T08:47:03;45.15;;;22.08;;
21107;SDS011;10712;52.944;9.098;2022-10-31T08:49:32;18.45;;;16.58;;
21107;SDS011;10712;52.944;9.098;2022-10-31T08:51:57;19.92;;;17.23;;
21107;SDS011;10712;52.944;9.098;2022-10-31T08:54:28;16.98;;;15.27;;
21107;SDS011;10712;52.944;9.098;2022-10-31T08:56:54;29.30;;;21.05;;
21107;SDS011;10712;52.944;9.098;2022-10-31T08:59:38;29.67;;;26.55;;
21107;SDS011;10712;52.944;9.098;2022-10-31T09:02:22;22.13;;;19.27;;
21107;SDS011;10712;52.944;9.098;2022-10-31T09:04:50;22.63;;;18.80;;
21107;SDS011;10712;52.944;9.098;2022-10-31T09:07:16;28.60;;;23.85;;
21107;SDS011;10712;52.944;9.098;2022-10-31T09:09:42;21.52;;;19.33;;
21107;SDS011;10712;52.944;9.098;2022-10-31T09:12:08;29.83;;;22.80;;
21107;SDS011;10712;52.944;9.098;2022-10-31T09:14:53;20.35;;;18.30;;
21107;SDS011;10712;52.944;9.098;2022-10-31T09:17:27;19.15;;;17.15;;
21107;SDS011;10712;52.944;9.098;2022-10-31T09:20:14;22.45;;;19.10;;
21107;SDS011;10712;52.944;9.098;2022-10-31T09:22:40;17.17;;;15.40;;
21107;SDS011;10712;52.944;9.098;2022-10-31T09:25:06;18.63;;;16.70;;
21107;SDS011;10712;52.944;9.098;2022-10-31T09:27:33;18.58;;;16.58;;
21107;SDS011;10712;52.944;9.098;2022-10-31T09:30:00;15.50;;;13.85;;
21107;SDS011;10712;52.944;9.098;2022-10-31T09:32:26;20.70;;;18.42;;
21107;SDS011;10712;52.944;9.098;2022-10-31T09:34:52;17.52;;;15.82;;
21107;SDS011;10712;52.944;9.098;2022-10-31T09:37:19;14.35;;;12.85;;
21107;SDS011;10712;52.944;9.098;2022-10-31T09:39:45;14.55;;;13.15;;
21107;SDS011;10712;52.944;9.098;2022-10-31T09:45:16;37.65;;;25.25;;
21107;SDS011;10712;52.944;9.098;2022-10-31T09:48:27;22.13;;;19.73;;
21107;SDS011;10712;52.944;9.098;2022-10-31T09:51:15;22.20;;;18.85;;
21107;SDS011;10712;52.944;9.098;2022-10-31T09:56:41;25.38;;;21.58;;
21107;SDS011;10712;52.944;9.098;2022-10-31T09:59:26;27.30;;;24.27;;
21107;SDS011;10712;52.944;9.098;2022-10-31T10:04:57;23.60;;;21.08;;
21107;SDS011;10712;52.944;9.098;2022-10-31T10:10:18;26.23;;;23.33;;
21107;SDS011;10712;52.944;9.098;2022-10-31T10:22:38;28.58;;;25.05;;
21107;SDS011;10712;52.944;9.098;2022-10-31T10:25:22;28.50;;;22.70;;
21107;SDS011;10712;52.944;9.098;2022-10-31T10:28:08;34.60;;;27.67;;
21107;SDS011;10712;52.944;9.098;2022-10-31T10:30:53;37.40;;;28.85;;
21107;SDS011;10712;52.944;9.098;2022-10-31T10:33:43;48.15;;;34.25;;
21107;SDS011;10712;52.944;9.098;2022-10-31T10:36:37;40.33;;;31.52;;
21107;SDS011;10712;52.944;9.098;2022-10-31T10:39:20;29.90;;;25.55;;
21107;SDS011;10712;52.944;9.098;2022-10-31T10:41:59;36.38;;;28.23;;
21107;SDS011;10712;52.944;9.098;2022-10-31T10:44:50;47.28;;;33.95;;
21107;SDS011;10712;52.944;9.098;2022-10-31T10:47:54;41.13;;;30.38;;
21107;SDS011;10712;52.944;9.098;2022-10-31T10:50:36;41.50;;;32.45;;
21107;SDS011;10712;52.944;9.098;2022-10-31T10:53:17;40.35;;;29.20;;
21107;SDS011;10712;52.944;9.098;2022-10-31T10:56:37;52.60;;;34.78;;
21107;SDS011;10712;52.944;9.098;2022-10-31T10:59:13;43.45;;;30.83;;
21107;SDS011;10712;52.944;9.098;2022-10-31T11:01:44;36.15;;;28.60;;
21107;SDS011;10712;52.944;9.098;2022-10-31T11:04:21;40.55;;;31.50;;
21107;SDS011;10712;52.944;9.098;2022-10-31T11:09:34;35.80;;;27.67;;
21107;SDS011;10712;52.944;9.098;2022-10-31T11:12:09;55.33;;;36.97;;
21107;SDS011;10712;52.944;9.098;2022-10-31T11:14:49;40.90;;;31.92;;
21107;SDS011;10712;52.944;9.098;2022-10-31T11:17:33;40.05;;;29.58;;
21107;SDS011;10712;52.944;9.098;2022-10-31T11:20:16;40.25;;;29.13;;
21107;SDS011;10712;52.944;9.098;2022-10-31T11:23:05;37.15;;;27.65;;
21107;SDS011;10712;52.944;9.098;2022-10-31T11:25:52;44.00;;;33.28;;
21107;SDS011;10712;52.944;9.098;2022-10-31T11:28:25;48.08;;;32.85;;
21107;SDS011;10712;52.944;9.098;2022-10-31T11:30:58;51.25;;;34.92;;
21107;SDS011;10712;52.944;9.098;2022-10-31T11:33:45;46.78;;;33.70;;
21107;SDS011;10712;52.944;9.098;2022-10-31T11:36:21;46.05;;;32.28;;
21107;SDS011;10712;52.944;9.098;2022-10-31T11:38:51;40.88;;;29.52;;
21107;SDS011;10712;52.944;9.098;2022-10-31T11:41:32;51.80;;;32.88;;
21107;SDS011;10712;52.944;9.098;2022-10-31T11:44:04;52.78;;;32.70;;
21107;SDS011;10712;52.944;9.098;2022-10-31T11:46:57;35.15;;;25.67;;
21107;SDS011;10712;52.944;9.098;2022-10-31T11:52:08;44.35;;;28.83;;
21107;SDS011;10712;52.944;9.098;2022-10-31T11:55:00;40.85;;;26.77;;
21107;SDS011;10712;52.944;9.098;2022-10-31T11:57:58;35.03;;;26.50;;
21107;SDS011;10712;52.944;9.098;2022-10-31T12:00:25;36.90;;;25.38;;
21107;SDS011;10712;52.944;9.098;2022-10-31T12:06:29;39.33;;;27.70;;
21107;SDS011;10712;52.944;9.098;2022-10-31T12:09:21;32.97;;;24.90;;
21107;SDS011;10712;52.944;9.098;2022-10-31T12:12:13;37.17;;;25.52;;
21107;SDS011;10712;52.944;9.098;2022-10-31T12:21:09;38.38;;;24.80;;
21107;SDS011;10712;52.944;9.098;2022-10-31T12:23:57;51.47;;;34.42;;
21107;SDS011;10712;52.944;9.098;2022-10-31T12:47:42;39.65;;;27.42;;
21107;SDS011;10712;52.944;9.098;2022-10-31T12:57:13;39.78;;;29.23;;
21107;SDS011;10712;52.944;9.098;2022-10-31T12:59:48;38.13;;;26.23;;
21107;SDS011;10712;52.944;9.098;2022-10-31T13:02:24;32.83;;;24.90;;
21107;SDS011;10712;52.944;9.098;2022-10-31T13:08:03;30.38;;;22.50;;
21107;SDS011;10712;52.944;9.098;2022-10-31T13:16:16;42.95;;;29.15;;
21107;SDS011;10712;52.944;9.098;2022-10-31T13:19:01;38.63;;;27.20;;
21107;SDS011;10712;52.944;9.098;2022-10-31T13:24:52;40.38;;;27.85;;
21107;SDS011;10712;52.944;9.098;2022-10-31T13:30:27;39.42;;;26.48;;
21107;SDS011;10712;52.944;9.098;2022-10-31T13:46:50;38.78;;;27.85;;
21107;SDS011;10712;52.944;9.098;2022-10-31T13:49:25;41.97;;;28.10;;
21107;SDS011;10712;52.944;9.098;2022-10-31T13:54:48;37.28;;;27.00;;
21107;SDS011;10712;52.944;9.098;2022-10-31T14:00:21;37.45;;;23.33;;
21107;SDS011;10712;52.944;9.098;2022-10-31T14:02:52;39.75;;;25.58;;
21107;SDS011;10712;52.944;9.098;2022-10-31T14:05:26;57.17;;;33.65;;
21107;SDS011;10712;52.944;9.098;2022-10-31T14:07:57;37.17;;;25.65;;
21107;SDS011;10712;52.944;9.098;2022-10-31T14:13:04;42.38;;;27.08;;
21107;SDS011;10712;52.944;9.098;2022-10-31T14:18:24;37.63;;;27.42;;
21107;SDS011;10712;52.944;9.098;2022-10-31T14:21:00;51.97;;;32.85;;
21107;SDS011;10712;52.944;9.098;2022-10-31T14:26:17;44.72;;;29.60;;
21107;SDS011;10712;52.944;9.098;2022-10-31T14:31:52;49.70;;;30.77;;
21107;SDS011;10712;52.944;9.098;2022-10-31T14:34:25;46.85;;;29.77;;
21107;SDS011;10712;52.944;9.098;2022-10-31T14:40:11;33.22;;;24.70;;
21107;SDS011;10712;52.944;9.098;2022-10-31T14:51:41;29.17;;;22.48;;
21107;SDS011;10712;52.944;9.098;2022-10-31T14:54:12;27.05;;;20.30;;
21107;SDS011;10712;52.944;9.098;2022-10-31T14:56:53;27.00;;;20.13;;
21107;SDS011;10712;52.944;9.098;2022-10-31T14:59:26;24.27;;;17.83;;
21107;SDS011;10712;52.944;9.098;2022-10-31T15:01:59;28.83;;;20.77;;
21107;SDS011;10712;52.944;9.098;2022-10-31T15:04:39;22.20;;;16.42;;
21107;SDS011;10712;52.944;9.098;2022-10-31T15:07:16;40.50;;;25.52;;
21107;SDS011;10712;52.944;9.098;2022-10-31T15:09:55;27.63;;;19.52;;
21107;SDS011;10712;52.944;9.098;2022-10-31T15:12:25;34.38;;;23.10;;
21107;SDS011;10712;52.944;9.098;2022-10-31T15:14:57;34.92;;;21.08;;
21107;SDS011;10712;52.944;9.098;2022-10-31T15:17:41;30.30;;;20.65;;
21107;SDS011;10712;52.944;9.098;2022-10-31T15:20:17;30.58;;;21.13;;
21107;SDS011;10712;52.944;9.098;2022-10-31T15:22:48;42.13;;;33.58;;
21107;SDS011;10712;52.944;9.098;2022-10-31T15:25:22;44.67;;;33.67;;
21107;SDS011;10712;52.944;9.098;2022-10-31T15:27:52;32.05;;;24.23;;
21107;SDS011;10712;52.944;9.098;2022-10-31T15:30:22;26.65;;;21.88;;
21107;SDS011;10712;52.944;9.098;2022-10-31T15:32:51;30.73;;;21.42;;
21107;SDS011;10712;52.944;9.098;2022-10-31T15:35:28;26.95;;;19.17;;
21107;SDS011;10712;52.944;9.098;2022-10-31T15:37:56;26.52;;;19.33;;
21107;SDS011;10712;52.944;9.098;2022-10-31T15:40:24;22.58;;;16.88;;
21107;SDS011;10712;52.944;9.098;2022-10-31T15:42:58;20.92;;;15.77;;
21107;SDS011;10712;52.944;9.098;2022-10-31T15:45:29;22.95;;;16.15;;
21107;SDS011;10712;52.944;9.098;2022-10-31T15:47:57;30.90;;;19.80;;
21107;SDS011;10712;52.944;9.098;2022-10-31T15:51:01;27.17;;;18.98;;
21107;SDS011;10712;52.944;9.098;2022-10-31T15:53:35;24.67;;;18.70;;
21107;SDS011;10712;52.944;9.098;2022-10-31T15:56:24;25.42;;;17.48;;
21107;SDS011;10712;52.944;9.098;2022-10-31T15:58:55;22.08;;;15.10;;
21107;SDS011;10712;52.944;9.098;2022-10-31T16:01:30;23.05;;;16.15;;
21107;SDS011;10712;52.944;9.098;2022-10-31T16:06:51;26.63;;;16.40;;
21107;SDS011;10712;52.944;9.098;2022-10-31T16:09:37;27.23;;;17.80;;
21107;SDS011;10712;52.944;9.098;2022-10-31T16:12:31;22.92;;;14.70;;
21107;SDS011;10712;52.944;9.098;2022-10-31T16:15:02;17.85;;;13.18;;
21107;SDS011;10712;52.944;9.098;2022-10-31T16:17:30;25.73;;;15.63;;
21107;SDS011;10712;52.944;9.098;2022-10-31T16:19:58;19.90;;;12.77;;
21107;SDS011;10712;52.944;9.098;2022-10-31T16:22:33;14.15;;;11.27;;
21107;SDS011;10712;52.944;9.098;2022-10-31T16:25:12;14.35;;;11.40;;
21107;SDS011;10712;52.944;9.098;2022-10-31T16:33:24;43.00;;;17.88;;
21107;SDS011;10712;52.944;9.098;2022-10-31T16:38:52;22.15;;;15.60;;
21107;SDS011;10712;52.944;9.098;2022-10-31T16:41:22;25.00;;;15.85;;
21107;SDS011;10712;52.944;9.098;2022-10-31T16:43:50;25.65;;;15.30;;
21107;SDS011;10712;52.944;9.098;2022-10-31T16:46:22;22.13;;;15.10;;
21107;SDS011;10712;52.944;9.098;2022-10-31T16:48:52;23.40;;;14.68;;
21107;SDS011;10712;52.944;9.098;2022-10-31T16:51:19;17.42;;;12.63;;
21107;SDS011;10712;52.944;9.098;2022-10-31T16:53:45;19.40;;;12.98;;
21107;SDS011;10712;52.944;9.098;2022-10-31T16:56:13;16.10;;;10.82;;
21107;SDS011;10712;52.944;9.098;2022-10-31T17:01:09;23.77;;;13.57;;
21107;SDS011;10712;52.944;9.098;2022-10-31T17:03:37;24.05;;;13.57;;
21107;SDS011;10712;52.944;9.098;2022-10-31T17:06:04;17.45;;;11.65;;
21107;SDS011;10712;52.944;9.098;2022-10-31T17:08:29;18.33;;;10.93;;
21107;SDS011;10712;52.944;9.098;2022-10-31T17:10:55;14.90;;;10.45;;
21107;SDS011;10712;52.944;9.098;2022-10-31T17:13:28;13.95;;;10.18;;
21107;SDS011;10712;52.944;9.098;2022-10-31T17:15:58;13.48;;;9.10;;
21107;SDS011;10712;52.944;9.098;2022-10-31T17:18:27;24.42;;;12.50;;
21107;SDS011;10712;52.944;9.098;2022-10-31T17:20:58;12.38;;;8.90;;
21107;SDS011;10712;52.944;9.098;2022-10-31T17:23:30;13.52;;;10.10;;
21107;SDS011;10712;52.944;9.098;2022-10-31T17:25:57;11.93;;;7.97;;
21107;SDS011;10712;52.944;9.098;2022-10-31T17:28:23;10.50;;;8.25;;
21107;SDS011;10712;52.944;9.098;2022-10-31T17:30:50;13.15;;;8.05;;
21107;SDS011;10712;52.944;9.098;2022-10-31T17:33:20;13.35;;;8.52;;
21107;SDS011;10712;52.944;9.098;2022-10-31T17:35:46;11.73;;;8.98;;
21107;SDS011;10712;52.944;9.098;2022-10-31T17:38:12;10.82;;;8.75;;
21107;SDS011;10712;52.944;9.098;2022-10-31T17:40:38;11.10;;;7.93;;
21107;SDS011;10712;52.944;9.098;2022-10-31T17:43:08;13.32;;;9.98;;
21107;SDS011;10712;52.944;9.098;2022-10-31T17:45:37;13.77;;;10.65;;
21107;SDS011;10712;52.944;9.098;2022-10-31T17:48:05;14.88;;;10.85;;
21107;SDS011;10712;52.944;9.098;2022-10-31T17:50:32;11.60;;;8.50;;